createdAt,value
2023-05-01T00:02:54.745Z,16.80
2023-05-01T00:07:57.765Z,17.00
2023-05-01T00:13:00.542Z,18.60
2023-05-01T00:18:04.804Z,16.20
2023-05-01T00:23:08.591Z,16.80
2023-05-01T00:28:11.462Z,17.00
2023-05-01T00:33:16.199Z,16.80
2023-05-01T00:38:18.972Z,16.75
2023-05-01T00:43:22.169Z,17.00
2023-05-01T00:48:27.306Z,14.80
2023-05-01T00:53:30.137Z,16.00
2023-05-01T00:58:32.905Z,16.00
2023-05-01T01:03:37.230Z,15.60
2023-05-01T01:08:43.052Z,15.40
2023-05-01T01:13:48.153Z,15.40
2023-05-01T01:18:55.447Z,15.00
2023-05-01T01:24:35.506Z,16.00
2023-05-01T01:29:59.776Z,13.60
2023-05-01T01:35:04.803Z,15.80
2023-05-01T01:40:10.103Z,13.20
2023-05-01T01:45:14.728Z,14.60
2023-05-01T01:50:18.824Z,14.60
2023-05-01T01:55:23.703Z,15.00
2023-05-01T02:00:26.462Z,13.20
2023-05-01T02:05:30.612Z,12.60
2023-05-01T02:10:33.923Z,14.40
2023-05-01T02:15:36.696Z,13.80
2023-05-01T02:20:41.028Z,12.00
2023-05-01T02:25:44.208Z,13.00
2023-05-01T02:30:47.220Z,12.20
2023-05-01T02:35:51.435Z,12.00
2023-05-01T02:40:56.905Z,13.00
2023-05-01T02:45:59.797Z,12.40
2023-05-01T02:51:04.521Z,11.40
2023-05-01T02:56:08.719Z,13.00
2023-05-01T03:01:12.220Z,12.40
2023-05-01T03:06:16.425Z,12.00
2023-05-01T03:11:19.194Z,11.80
2023-05-01T03:16:22.000Z,12.00
2023-05-01T03:21:26.658Z,9.80
2023-05-01T03:26:30.039Z,12.00
2023-05-01T03:31:33.048Z,12.20
2023-05-01T03:36:37.392Z,11.40
2023-05-01T03:41:40.646Z,11.20
2023-05-01T03:46:52.145Z,11.80
2023-05-01T03:52:01.234Z,12.00
2023-05-01T03:57:04.144Z,11.20
2023-05-01T04:02:07.103Z,11.40
2023-05-01T04:07:14.120Z,12.80
2023-05-01T04:12:17.212Z,11.00
2023-05-01T04:17:20.010Z,12.60
2023-05-01T04:22:24.517Z,9.80
2023-05-01T04:27:28.154Z,11.00
2023-05-01T04:32:30.974Z,9.00
2023-05-01T04:37:35.685Z,11.00
2023-05-01T04:42:39.451Z,11.40
2023-05-01T04:47:45.208Z,11.00
2023-05-01T04:52:49.476Z,12.00
2023-05-01T04:57:52.634Z,8.80
2023-05-01T05:02:56.262Z,9.80
2023-05-01T05:08:00.987Z,10.60
2023-05-01T05:13:15.638Z,8.00
2023-05-01T05:18:18.435Z,9.00
2023-05-01T05:23:23.014Z,9.00
2023-05-01T05:28:26.213Z,9.00
2023-05-01T05:33:29.170Z,10.60
2023-05-01T05:38:33.667Z,9.80
2023-05-01T05:43:37.243Z,11.00
2023-05-01T05:48:42.490Z,9.00
2023-05-01T05:53:47.295Z,8.80
2023-05-01T05:58:50.035Z,9.00
2023-05-01T06:03:53.152Z,9.00
2023-05-01T06:08:57.755Z,9.00
2023-05-01T06:14:00.966Z,8.00
2023-05-01T06:19:04.115Z,8.40
2023-05-01T06:24:09.101Z,8.20
2023-05-01T06:29:20.970Z,8.00
2023-05-01T06:34:23.779Z,8.80
2023-05-01T06:39:31.716Z,8.00
2023-05-01T06:44:34.664Z,8.40
2023-05-01T06:49:37.974Z,9.00
2023-05-01T06:54:42.351Z,8.60
2023-05-01T06:59:45.186Z,7.60
2023-05-01T07:04:47.970Z,23.50
2023-05-01T07:09:52.185Z,25.75
2023-05-01T07:14:55.058Z,24.75
2023-05-01T07:19:58.005Z,23.00
2023-05-01T07:25:03.450Z,20.75
2023-05-01T07:30:07.704Z,19.50
2023-05-01T07:35:11.223Z,21.25
2023-05-01T07:40:15.547Z,20.20
2023-05-01T07:45:18.568Z,20.60
2023-05-01T07:50:22.619Z,19.00
2023-05-01T07:55:26.851Z,19.00
2023-05-01T08:00:30.077Z,19.00
2023-05-01T08:05:32.892Z,19.00
2023-05-01T08:10:37.111Z,20.00
2023-05-01T08:15:42.732Z,19.00
2023-05-01T08:20:45.519Z,19.80
2023-05-01T08:25:51.570Z,19.00
2023-05-01T08:30:54.360Z,19.00
2023-05-01T08:35:57.137Z,19.00
2023-05-01T08:41:01.677Z,17.40
2023-05-01T08:46:04.957Z,19.60
2023-05-01T08:51:07.806Z,17.80
2023-05-01T08:56:13.654Z,18.60
2023-05-01T09:01:16.689Z,18.80
2023-05-01T09:06:19.558Z,17.60
2023-05-01T09:11:24.183Z,18.60
2023-05-01T09:16:27.084Z,16.80
2023-05-01T09:21:31.955Z,17.00
2023-05-01T09:26:38.417Z,17.00
2023-05-01T09:31:41.276Z,16.00
2023-05-01T09:36:44.107Z,17.20
2023-05-01T09:41:53.469Z,17.00
2023-05-01T09:46:56.470Z,17.00
2023-05-01T09:52:12.004Z,16.00
2023-05-01T09:57:16.210Z,16.00
2023-05-01T10:02:29.105Z,16.20
2023-05-01T10:07:32.076Z,14.80
2023-05-01T10:12:37.364Z,16.20
2023-05-01T10:17:40.579Z,17.40
2023-05-01T10:22:44.369Z,17.00
2023-05-01T10:27:49.150Z,22.25
2023-05-01T10:32:52.821Z,26.75
2023-05-01T10:37:59.662Z,28.00
2023-05-01T10:43:17.151Z,29.00
2023-05-01T10:48:55.097Z,30.00
2023-05-01T10:54:23.261Z,32.00
2023-05-01T10:59:27.407Z,29.00
2023-05-01T11:04:50.690Z,31.00
2023-05-01T11:09:57.489Z,25.00
2023-05-01T11:15:05.771Z,17.80
2023-05-01T11:20:09.103Z,17.00
2023-05-01T11:25:19.153Z,17.00
2023-05-01T11:30:23.365Z,16.80
2023-05-01T11:35:27.233Z,15.80
2023-05-01T11:40:30.832Z,17.00
2023-05-01T11:45:35.447Z,16.80
2023-05-01T11:50:39.413Z,17.00
2023-05-01T11:55:42.265Z,17.00
2023-05-01T12:00:47.016Z,16.20
2023-05-01T12:05:49.951Z,15.80
2023-05-01T12:10:55.898Z,15.80
2023-05-01T12:16:01.277Z,14.40
2023-05-01T12:21:04.178Z,16.80
2023-05-01T12:26:17.520Z,16.20
2023-05-01T12:31:21.806Z,16.00
2023-05-01T12:36:25.768Z,17.00
2023-05-01T12:41:36.694Z,15.80
2023-05-01T12:46:41.265Z,17.20
2023-05-01T12:51:47.760Z,17.00
2023-05-01T12:56:50.752Z,16.80
2023-05-01T13:02:01.622Z,21.75
2023-05-01T13:07:11.535Z,94.00
2023-05-01T13:12:14.354Z,87.67
2023-05-01T13:17:24.191Z,101.75
2023-05-01T13:22:32.278Z,132.50
2023-05-01T13:27:35.008Z,149.75
2023-05-01T13:32:40.389Z,157.50
2023-05-01T13:37:43.181Z,133.50
2023-05-01T13:42:46.167Z,122.25
2023-05-01T13:47:50.518Z,107.00
2023-05-01T13:52:53.463Z,102.50
2023-05-01T13:57:56.565Z,85.00
2023-05-01T14:03:00.907Z,82.33
2023-05-01T14:08:03.824Z,75.50
2023-05-01T14:13:06.805Z,72.25
2023-05-01T14:18:17.744Z,65.50
2023-05-01T14:23:23.024Z,66.75
2023-05-01T14:28:26.006Z,59.25
2023-05-01T14:33:30.217Z,54.50
2023-05-01T14:38:39.338Z,53.50
2023-05-01T14:43:42.388Z,52.75
2023-05-01T14:48:46.550Z,48.00
2023-05-01T14:53:49.304Z,46.50
2023-05-01T14:58:52.126Z,43.00
2023-05-01T15:03:56.483Z,43.00
2023-05-01T15:08:59.353Z,41.25
2023-05-01T15:14:02.511Z,40.75
2023-05-01T15:19:06.658Z,39.00
2023-05-01T15:24:10.305Z,38.50
2023-05-01T15:29:13.224Z,39.00
2023-05-01T15:34:17.462Z,36.25
2023-05-01T15:39:20.300Z,35.75
2023-05-01T15:44:23.054Z,35.00
2023-05-01T15:49:27.698Z,34.50
2023-05-01T15:54:30.635Z,35.00
2023-05-01T15:59:33.514Z,32.00
2023-05-01T16:04:40.473Z,34.00
2023-05-01T16:09:43.425Z,32.67
2023-05-01T16:14:46.213Z,32.33
2023-05-01T16:19:50.446Z,33.67
2023-05-01T16:24:53.424Z,33.00
2023-05-01T16:29:56.457Z,31.00
2023-05-01T16:35:01.538Z,31.33
2023-05-01T16:40:04.908Z,30.33
2023-05-01T16:45:09.511Z,31.00
2023-05-01T16:50:14.053Z,31.00
2023-05-01T16:55:17.551Z,30.00
2023-05-01T17:00:20.679Z,30.00
2023-05-01T17:05:24.900Z,30.00
2023-05-01T17:10:28.129Z,29.67
2023-05-01T17:15:30.884Z,29.00
2023-05-01T17:20:35.068Z,27.67
2023-05-01T17:25:37.871Z,29.00
2023-05-01T17:30:53.694Z,29.33
2023-05-01T17:36:04.948Z,29.00
2023-05-01T17:41:07.842Z,27.25
2023-05-01T17:46:10.818Z,26.50
2023-05-01T17:51:15.343Z,26.75
2023-05-01T17:56:18.675Z,25.75
2023-05-01T18:01:21.643Z,26.00
2023-05-01T18:06:25.972Z,25.75
2023-05-01T18:11:28.950Z,24.00
2023-05-01T18:16:32.471Z,24.75
2023-05-01T18:21:36.725Z,24.00
2023-05-01T18:26:39.514Z,23.25
2023-05-01T18:31:42.481Z,23.00
2023-05-01T18:36:52.026Z,25.25
2023-05-01T18:41:55.330Z,23.00
2023-05-01T18:46:58.286Z,23.25
2023-05-01T18:52:03.263Z,22.50
2023-05-01T18:57:06.604Z,23.50
2023-05-01T19:02:09.493Z,21.50
2023-05-01T19:07:13.774Z,21.75
2023-05-01T19:12:17.045Z,21.00
2023-05-01T19:17:19.825Z,23.50
2023-05-01T19:22:24.040Z,21.00
2023-05-01T19:27:27.138Z,19.00
2023-05-01T19:32:30.151Z,21.25
2023-05-01T19:37:34.425Z,20.50
2023-05-01T19:42:37.455Z,19.25
2023-05-01T19:47:40.297Z,20.00
2023-05-01T19:52:44.488Z,19.50
2023-05-01T19:57:47.442Z,21.00
2023-05-01T20:02:50.403Z,20.00
2023-05-01T20:07:55.162Z,20.25
2023-05-01T20:12:58.225Z,19.00
2023-05-01T20:18:01.293Z,17.25
2023-05-01T20:23:12.176Z,20.25
2023-05-01T20:28:15.615Z,19.50
2023-05-01T20:33:18.635Z,19.25
2023-05-01T20:38:23.281Z,17.50
2023-05-01T20:43:26.951Z,19.50
2023-05-01T20:48:29.802Z,19.25
2023-05-01T20:53:34.003Z,18.20
2023-05-01T20:58:36.935Z,18.00
2023-05-01T21:03:40.292Z,17.00
2023-05-01T21:08:44.776Z,17.00
2023-05-01T21:13:47.701Z,16.60
2023-05-01T21:18:50.547Z,16.40
2023-05-01T21:23:54.770Z,17.20
2023-05-01T21:28:58.686Z,18.00
2023-05-01T21:34:02.336Z,18.20
2023-05-01T21:39:06.734Z,16.00
2023-05-01T21:44:09.657Z,17.00
2023-05-01T21:49:12.680Z,16.40
2023-05-01T21:54:17.638Z,17.60
2023-05-01T21:59:21.328Z,16.60
2023-05-01T22:04:24.791Z,17.20
2023-05-01T22:09:28.886Z,16.80
2023-05-01T22:14:46.274Z,17.20
2023-05-01T22:19:50.121Z,16.00
2023-05-01T22:24:54.292Z,15.20
2023-05-01T22:29:57.506Z,16.80
2023-05-01T22:35:00.758Z,15.40
2023-05-01T22:40:05.804Z,15.40
2023-05-01T22:45:10.145Z,16.00
2023-05-01T22:50:13.013Z,15.60
2023-05-01T22:55:17.661Z,15.80
2023-05-01T23:00:22.112Z,16.20
2023-05-01T23:05:25.074Z,16.40
2023-05-01T23:10:30.361Z,16.20
2023-05-01T23:15:33.941Z,12.40
2023-05-01T23:20:39.927Z,15.20
2023-05-01T23:25:48.836Z,14.60
2023-05-01T23:30:55.006Z,14.20
2023-05-01T23:35:58.438Z,14.40
2023-05-01T23:41:02.632Z,14.40
2023-05-01T23:46:06.508Z,14.00
2023-05-01T23:51:09.271Z,15.00
2023-05-01T23:56:13.990Z,13.00
